Time;durP1;ratioP1;P1;durP2;ratioP2;P2;SDS_P1;SDS_P2;PMS_P1;PMS_P2;Temp;Humidity;BMP_temperature;BMP_pressure;BME280_temperature;BME280_humidity;BME280_pressure;Samples;Min_cycle;Max_cycle;Signal;HPM_P1;HPM_P2
2022/06/30 00:00:48;;;;;;;4.60;2.20;;;13.60;99.90;;;;;;5053329;28;20476;-88
2022/06/30 00:03:15;;;;;;;6.93;2.20;;;13.60;99.90;;;;;;5052967;28;20735;-89
2022/06/30 00:05:42;;;;;;;3.55;2.30;;;13.60;99.90;;;;;;5053058;28;20410;-86
2022/06/30 00:08:10;;;;;;;3.30;2.20;;;13.60;99.90;;;;;;5053242;28;20372;-87
2022/06/30 00:10:37;;;;;;;4.50;2.40;;;13.70;99.90;;;;;;5052953;28;20407;-88
2022/06/30 00:13:04;;;;;;;6.28;2.35;;;13.80;99.90;;;;;;5052977;28;20404;-87
2022/06/30 00:15:32;;;;;;;8.18;2.70;;;13.80;99.90;;;;;;5052809;28;20376;-88
2022/06/30 00:17:59;;;;;;;6.95;2.60;;;13.80;99.90;;;;;;5052821;28;20380;-86
2022/06/30 00:20:26;;;;;;;9.70;3.00;;;13.70;99.90;;;;;;5052810;28;20376;-87
2022/06/30 00:22:53;;;;;;;6.78;2.42;;;13.80;99.90;;;;;;5052555;28;20376;-86
2022/06/30 00:25:21;;;;;;;7.93;2.60;;;13.80;99.90;;;;;;5052673;28;20728;-87
2022/06/30 00:27:48;;;;;;;8.82;2.60;;;14.00;99.90;;;;;;5052773;28;20735;-85
2022/06/30 00:30:15;;;;;;;10.10;2.90;;;14.10;99.90;;;;;;5052581;28;20394;-85
2022/06/30 00:32:42;;;;;;;4.78;2.42;;;14.40;99.90;;;;;;5052544;28;20376;-85
2022/06/30 00:35:09;;;;;;;4.93;2.20;;;14.50;99.90;;;;;;5052577;28;20391;-85
2022/06/30 00:37:36;;;;;;;10.40;2.70;;;14.60;99.90;;;;;;5052531;28;20386;-85
2022/06/30 00:40:04;;;;;;;13.05;3.10;;;14.80;99.90;;;;;;5052479;28;20449;-85
2022/06/30 00:42:31;;;;;;;11.27;2.97;;;15.10;99.90;;;;;;5052753;28;20368;-85
2022/06/30 00:44:58;;;;;;;11.63;3.07;;;15.30;99.90;;;;;;5052589;28;20499;-87
2022/06/30 00:47:26;;;;;;;6.55;2.00;;;15.40;99.90;;;;;;5052503;28;20382;-84
2022/06/30 00:49:54;;;;;;;3.83;2.08;;;15.40;99.90;;;;;;5052257;28;20368;-84
2022/06/30 00:52:24;;;;;;;4.82;1.70;;;15.30;99.90;;;;;;5052463;28;20376;-84
2022/06/30 00:54:53;;;;;;;5.85;2.00;;;15.30;99.90;;;;;;5051061;28;20403;-84
2022/06/30 00:57:22;;;;;;;4.03;1.80;;;15.50;99.90;;;;;;5052254;28;20464;-85
2022/06/30 00:59:52;;;;;;;5.05;1.60;;;15.80;99.90;;;;;;5052407;28;20434;-84
2022/06/30 01:02:20;;;;;;;8.38;2.15;;;16.10;99.90;;;;;;5052071;28;20379;-84
2022/06/30 01:04:50;;;;;;;4.22;1.73;;;16.40;99.90;;;;;;5052056;28;20384;-84
2022/06/30 01:07:18;;;;;;;5.20;1.77;;;16.60;98.70;;;;;;5052356;28;20497;-84
2022/06/30 01:12:42;;;;;;;4.97;1.58;;;16.70;97.30;;;;;;5052416;28;20414;-84
2022/06/30 01:15:20;;;;;;;7.10;1.50;;;16.70;96.40;;;;;;5052569;28;20375;-85
2022/06/30 01:17:49;;;;;;;3.85;1.40;;;16.80;96.50;;;;;;5052079;28;20368;-83
2022/06/30 01:20:18;;;;;;;3.33;1.40;;;17.00;96.00;;;;;;5052211;28;20380;-85
2022/06/30 01:22:46;;;;;;;3.23;1.40;;;17.00;95.80;;;;;;5052810;28;20372;-86
2022/06/30 01:25:13;;;;;;;4.75;1.40;;;17.00;95.60;;;;;;5052596;28;20379;-83
2022/06/30 01:27:40;;;;;;;5.50;1.50;;;17.00;95.10;;;;;;5052977;28;20363;-84
2022/06/30 01:30:08;;;;;;;4.38;1.25;;;16.90;93.80;;;;;;5053608;28;20395;-87
2022/06/30 01:32:35;;;;;;;5.78;1.48;;;16.90;93.30;;;;;;5052807;28;20402;-84
2022/06/30 01:35:03;;;;;;;3.65;1.52;;;17.00;93.30;;;;;;5055489;28;20458;-85
2022/06/30 01:37:57;;;;;;;2.63;1.00;;;17.00;93.90;;;;;;5056215;28;20829;-85
2022/06/30 01:40:27;;;;;;;2.23;0.63;;;17.20;88.10;;;;;;5055766;28;20438;-83
2022/06/30 01:42:55;;;;;;;2.30;0.50;;;17.40;78.80;;;;;;5054942;28;20383;-83
2022/06/30 01:45:23;;;;;;;1.30;0.60;;;17.30;69.50;;;;;;5057059;28;20732;-82
2022/06/30 01:47:52;;;;;;;1.90;0.50;;;17.20;64.60;;;;;;5056470;28;20441;-83
2022/06/30 01:50:23;;;;;;;2.67;0.52;;;17.00;63.30;;;;;;5055548;28;20879;-83
2022/06/30 01:52:50;;;;;;;1.27;0.52;;;17.00;64.90;;;;;;5055535;28;20376;-84
2022/06/30 01:55:17;;;;;;;1.00;0.50;;;16.80;64.20;;;;;;5055549;28;20413;-83
2022/06/30 01:57:45;;;;;;;0.50;0.40;;;16.80;65.60;;;;;;5055558;28;20367;-83
2022/06/30 02:00:15;;;;;;;2.35;0.50;;;16.90;64.50;;;;;;5056227;28;20387;-83
2022/06/30 02:02:42;;;;;;;1.77;0.50;;;17.00;65.20;;;;;;5055950;28;20394;-84
2022/06/30 02:05:11;;;;;;;1.25;0.50;;;17.20;65.80;;;;;;5055785;28;20375;-84
2022/06/30 02:07:39;;;;;;;1.70;0.60;;;17.20;67.30;;;;;;5055390;28;20390;-84
2022/06/30 02:10:14;;;;;;;1.50;0.50;;;17.30;66.90;;;;;;5055307;28;20379;-84
2022/06/30 02:12:47;;;;;;;1.00;0.47;;;17.30;65.10;;;;;;5055425;28;20450;-82
2022/06/30 02:15:22;;;;;;;0.57;0.40;;;17.40;63.30;;;;;;5055168;28;20376;-84
2022/06/30 02:17:52;;;;;;;0.85;0.45;;;17.40;62.70;;;;;;5055759;28;20392;-83
2022/06/30 02:20:26;;;;;;;1.63;0.50;;;17.30;63.60;;;;;;5055175;28;20380;-84
2022/06/30 02:22:58;;;;;;;3.22;0.60;;;17.40;63.50;;;;;;5055164;28;20413;-83
2022/06/30 02:25:27;;;;;;;2.17;0.50;;;17.60;63.40;;;;;;5054903;28;20743;-83
2022/06/30 02:27:55;;;;;;;3.45;0.68;;;17.90;63.40;;;;;;5054667;28;20371;-83
2022/06/30 02:30:23;;;;;;;4.32;0.82;;;18.20;63.20;;;;;;5054546;28;20391;-84
2022/06/30 02:32:51;;;;;;;2.55;0.75;;;18.10;62.30;;;;;;5054559;28;20372;-84
2022/06/30 02:35:18;;;;;;;6.53;0.90;;;18.30;62.00;;;;;;5054717;28;20388;-84
2022/06/30 02:37:46;;;;;;;4.32;0.60;;;18.50;61.50;;;;;;5054561;28;20466;-83
2022/06/30 02:40:13;;;;;;;3.97;0.73;;;18.50;60.90;;;;;;5054680;28;20380;-84
2022/06/30 02:42:40;;;;;;;4.45;0.70;;;18.30;61.30;;;;;;5054587;28;20368;-84
2022/06/30 02:45:08;;;;;;;6.13;0.88;;;18.10;62.50;;;;;;5053230;28;20436;-84
2022/06/30 02:47:38;;;;;;;4.82;0.77;;;18.20;62.50;;;;;;5054612;28;20458;-83
2022/06/30 02:50:07;;;;;;;5.03;0.80;;;18.20;62.50;;;;;;5054436;28;20374;-84
2022/06/30 02:52:36;;;;;;;3.78;0.70;;;18.20;63.10;;;;;;5054835;28;20384;-83
2022/06/30 02:55:05;;;;;;;1.83;0.80;;;18.10;61.90;;;;;;5054899;28;20404;-83
2022/06/30 02:57:33;;;;;;;7.28;0.68;;;17.80;62.90;;;;;;5054345;28;20415;-84
2022/06/30 03:00:01;;;;;;;2.93;0.60;;;17.50;63.20;;;;;;5054269;28;20375;-84
2022/06/30 03:02:28;;;;;;;4.60;0.80;;;17.90;64.10;;;;;;5054272;28;20422;-86
2022/06/30 03:04:55;;;;;;;8.38;1.30;;;18.10;64.00;;;;;;5054174;28;20376;-84
2022/06/30 03:07:22;;;;;;;3.25;1.00;;;18.00;64.40;;;;;;5054095;28;20380;-82
2022/06/30 03:09:49;;;;;;;11.65;1.35;;;18.20;64.40;;;;;;5052850;28;20796;-84
2022/06/30 03:12:16;;;;;;;3.40;0.90;;;18.20;64.20;;;;;;5054030;28;20376;-83
2022/06/30 03:14:43;;;;;;;8.30;1.08;;;18.30;64.40;;;;;;5054013;28;20442;-82
2022/06/30 03:17:10;;;;;;;17.48;1.73;;;18.20;66.10;;;;;;5053890;28;20474;-83
2022/06/30 03:19:37;;;;;;;4.85;1.17;;;18.20;65.60;;;;;;5054168;28;20922;-83
2022/06/30 03:22:05;;;;;;;7.53;1.43;;;18.20;65.60;;;;;;5054046;28;20383;-83
2022/06/30 03:24:32;;;;;;;8.07;1.55;;;18.00;66.70;;;;;;5053833;28;20762;-82
2022/06/30 03:26:59;;;;;;;3.83;1.33;;;18.00;66.90;;;;;;5056681;28;20372;-84
2022/06/30 03:29:26;;;;;;;3.97;1.30;;;18.10;66.90;;;;;;5054937;28;20717;-81
2022/06/30 03:31:53;;;;;;;8.33;1.77;;;18.10;66.80;;;;;;5058586;28;20446;-83
2022/06/30 03:34:21;;;;;;;4.07;1.15;;;18.00;66.90;;;;;;5054196;28;20488;-84
2022/06/30 03:36:49;;;;;;;3.55;1.05;;;17.80;67.10;;;;;;5053514;28;20368;-83
2022/06/30 03:39:16;;;;;;;11.50;1.70;;;17.70;67.50;;;;;;5053587;28;20380;-83
2022/06/30 03:41:43;;;;;;;5.55;0.93;;;17.70;67.70;;;;;;5053703;28;20554;-84
2022/06/30 03:44:10;;;;;;;9.80;1.67;;;17.70;67.50;;;;;;5053441;28;20384;-83
2022/06/30 03:46:37;;;;;;;12.20;1.80;;;17.70;67.50;;;;;;5053300;28;20379;-83
2022/06/30 03:49:04;;;;;;;12.23;1.80;;;17.70;67.80;;;;;;5053164;28;20918;-83
2022/06/30 03:51:32;;;;;;;12.63;1.70;;;17.70;68.40;;;;;;5053303;28;20426;-84
2022/06/30 03:53:59;;;;;;;8.20;1.38;;;17.70;67.90;;;;;;5053100;28;20399;-83
2022/06/30 03:56:26;;;;;;;6.90;1.20;;;17.60;67.20;;;;;;5053177;28;20376;-83
2022/06/30 03:58:53;;;;;;;10.33;1.50;;;17.60;67.20;;;;;;5053440;28;20388;-82
2022/06/30 04:01:21;;;;;;;2.92;1.00;;;17.60;65.90;;;;;;5053143;28;20368;-84
2022/06/30 04:03:48;;;;;;;7.80;1.13;;;17.60;65.10;;;;;;5052852;28;20375;-82
2022/06/30 04:06:15;;;;;;;17.17;1.50;;;17.60;65.10;;;;;;5053157;28;20431;-83
2022/06/30 04:08:42;;;;;;;13.10;1.60;;;17.50;64.90;;;;;;5053140;28;20460;-82
2022/06/30 04:11:09;;;;;;;5.75;1.00;;;17.30;64.90;;;;;;5052940;28;20736;-83
2022/06/30 04:13:37;;;;;;;3.97;0.90;;;17.30;64.80;;;;;;5052750;28;20388;-83
2022/06/30 04:16:04;;;;;;;6.20;1.00;;;17.30;64.70;;;;;;5051667;28;20879;-83
2022/06/30 04:18:31;;;;;;;3.40;0.93;;;17.20;65.30;;;;;;5052705;28;20765;-83
2022/06/30 04:20:58;;;;;;;7.45;1.17;;;17.20;65.20;;;;;;5052801;28;20445;-83
2022/06/30 04:23:26;;;;;;;10.55;1.35;;;17.20;64.60;;;;;;5052663;28;20372;-84
2022/06/30 04:25:53;;;;;;;13.75;2.03;;;17.20;64.50;;;;;;5051511;28;20585;-83
2022/06/30 04:28:20;;;;;;;16.35;3.47;;;17.20;66.00;;;;;;5052634;28;20771;-83
2022/06/30 04:33:32;;;;;;;10.20;1.88;;;17.20;67.10;;;;;;5052825;28;20481;-85
2022/06/30 04:36:04;;;;;;;10.43;1.63;;;17.20;67.50;;;;;;5051640;28;20474;-84
2022/06/30 04:38:31;;;;;;;7.17;1.40;;;17.20;67.80;;;;;;5052390;28;20495;-85
2022/06/30 04:43:43;;;;;;;10.52;1.40;;;17.30;67.20;;;;;;5052709;28;20367;-83
2022/06/30 04:46:10;;;;;;;7.72;1.48;;;17.40;67.60;;;;;;5052432;28;20407;-84
2022/06/30 04:48:37;;;;;;;6.20;1.80;;;17.40;67.20;;;;;;5052371;28;20383;-84
2022/06/30 04:51:04;;;;;;;6.82;1.65;;;17.40;67.40;;;;;;5052323;28;20429;-84
2022/06/30 04:53:32;;;;;;;4.53;1.37;;;17.30;67.40;;;;;;5052183;28;20400;-84
2022/06/30 04:55:59;;;;;;;7.17;1.60;;;17.40;68.10;;;;;;5052220;28;20433;-84
2022/06/30 04:58:26;;;;;;;7.75;2.10;;;17.60;67.70;;;;;;5052156;28;20364;-83
2022/06/30 05:00:53;;;;;;;5.28;1.20;;;17.50;68.00;;;;;;5051110;28;20400;-83
2022/06/30 05:03:20;;;;;;;6.18;1.15;;;17.60;67.50;;;;;;5052062;28;20447;-83
2022/06/30 05:05:50;;;;;;;3.97;0.90;;;17.60;67.20;;;;;;5052376;28;20367;-84
2022/06/30 05:08:17;;;;;;;4.60;1.10;;;17.40;68.30;;;;;;5051208;28;20394;-83
2022/06/30 05:10:45;;;;;;;3.13;0.80;;;17.40;68.60;;;;;;5051917;28;20408;-83
2022/06/30 05:13:12;;;;;;;6.90;1.40;;;17.30;68.90;;;;;;5052462;28;20392;-84
2022/06/30 05:15:39;;;;;;;3.92;0.90;;;17.20;69.00;;;;;;5051880;28;20441;-83
2022/06/30 05:18:06;;;;;;;7.53;1.10;;;17.20;69.40;;;;;;5051968;28;20383;-84
2022/06/30 05:20:33;;;;;;;5.35;1.00;;;17.10;69.30;;;;;;5052015;28;20413;-83
2022/06/30 05:23:00;;;;;;;7.43;1.10;;;17.10;69.40;;;;;;5051902;28;20376;-84
2022/06/30 05:28:13;;;;;;;4.35;1.10;;;17.10;70.20;;;;;;5051896;28;20870;-83
2022/06/30 05:30:41;;;;;;;4.88;1.10;;;17.10;70.10;;;;;;5052086;28;20457;-85
2022/06/30 05:33:09;;;;;;;4.88;0.88;;;17.10;70.20;;;;;;5052295;28;20399;-83
2022/06/30 05:35:36;;;;;;;5.85;1.10;;;17.00;70.60;;;;;;5052182;28;20379;-83
2022/06/30 05:38:03;;;;;;;4.72;0.98;;;16.90;71.40;;;;;;5051869;28;20833;-83
2022/06/30 05:40:31;;;;;;;3.37;0.97;;;16.80;71.90;;;;;;5051660;28;20375;-83
2022/06/30 05:42:58;;;;;;;9.20;1.00;;;16.60;73.10;;;;;;5051562;28;20375;-83
2022/06/30 05:45:25;;;;;;;1.90;0.90;;;16.60;73.10;;;;;;5051679;28;20380;-83
2022/06/30 05:47:53;;;;;;;1.85;1.00;;;16.40;73.90;;;;;;5051660;28;20375;-83
2022/06/30 05:50:21;;;;;;;2.30;0.98;;;16.40;74.60;;;;;;5052032;28;20379;-84
2022/06/30 05:52:51;;;;;;;2.30;1.00;;;16.50;74.90;;;;;;5051565;28;20379;-84
2022/06/30 05:55:19;;;;;;;2.00;0.90;;;16.40;75.10;;;;;;5051849;28;20449;-82
2022/06/30 05:57:56;;;;;;;1.80;1.00;;;16.40;75.50;;;;;;5051643;28;20407;-83
2022/06/30 06:00:25;;;;;;;3.83;1.35;;;16.50;76.20;;;;;;5051482;28;20447;-82
2022/06/30 06:02:53;;;;;;;2.97;1.10;;;16.40;76.60;;;;;;5051556;28;20399;-81
2022/06/30 06:05:20;;;;;;;2.75;1.10;;;16.40;77.70;;;;;;5051546;28;20376;-80
2022/06/30 06:07:48;;;;;;;2.45;0.80;;;16.30;74.50;;;;;;5051532;28;20391;-81
2022/06/30 06:10:15;;;;;;;3.50;0.90;;;16.30;67.80;;;;;;5051483;28;20380;-82
2022/06/30 06:12:43;;;;;;;1.73;0.93;;;16.20;65.40;;;;;;5051723;28;20467;-83
2022/06/30 06:15:11;;;;;;;2.03;1.00;;;16.00;63.60;;;;;;5051420;28;20987;-80
2022/06/30 06:17:48;;;;;;;2.85;1.00;;;15.90;63.20;;;;;;5051455;28;20368;-80
2022/06/30 06:20:18;;;;;;;4.55;1.00;;;15.80;63.80;;;;;;5053701;28;20404;-81
2022/06/30 06:22:45;;;;;;;3.35;1.00;;;15.70;64.30;;;;;;5055023;28;20368;-81
2022/06/30 06:25:15;;;;;;;2.58;0.85;;;15.60;65.30;;;;;;5055025;28;20386;-82
2022/06/30 06:27:42;;;;;;;4.13;1.02;;;15.50;66.10;;;;;;5055001;28;20467;-83
2022/06/30 06:30:12;;;;;;;2.22;0.82;;;15.40;66.90;;;;;;5054804;28;20467;-83
2022/06/30 06:32:39;;;;;;;3.05;0.85;;;15.30;66.50;;;;;;5053626;28;20391;-84
2022/06/30 06:35:07;;;;;;;2.38;0.82;;;15.20;66.20;;;;;;5055174;28;20446;-84
2022/06/30 06:37:34;;;;;;;2.20;0.90;;;15.20;66.80;;;;;;5054789;28;20905;-83
2022/06/30 06:40:01;;;;;;;3.25;1.05;;;15.10;67.80;;;;;;5054591;28;20387;-83
2022/06/30 06:42:28;;;;;;;2.75;1.10;;;15.00;68.00;;;;;;5054595;28;20380;-84
2022/06/30 06:44:55;;;;;;;4.47;1.00;;;14.90;68.30;;;;;;5054605;28;20376;-83
2022/06/30 06:47:23;;;;;;;2.87;1.10;;;14.80;68.60;;;;;;5054714;28;20395;-84
2022/06/30 06:49:50;;;;;;;2.10;1.00;;;14.70;68.80;;;;;;5054540;28;20384;-82
2022/06/30 06:52:17;;;;;;;3.45;0.93;;;14.60;68.60;;;;;;5054410;28;20445;-79
2022/06/30 06:54:44;;;;;;;3.45;0.95;;;14.50;68.60;;;;;;5053024;28;20411;-84
2022/06/30 06:57:14;;;;;;;3.17;1.00;;;14.40;68.90;;;;;;5054448;28;20421;-86
2022/06/30 06:59:42;;;;;;;2.50;1.02;;;14.40;69.50;;;;;;5054873;28;20423;-84
2022/06/30 07:02:09;;;;;;;3.92;0.90;;;14.30;69.50;;;;;;5054331;28;20890;-85
2022/06/30 07:04:36;;;;;;;2.45;0.85;;;14.10;69.80;;;;;;5054554;28;20376;-81
2022/06/30 07:07:03;;;;;;;2.57;1.10;;;14.10;70.20;;;;;;5054215;28;20379;-85
2022/06/30 07:09:31;;;;;;;3.55;1.10;;;14.00;70.50;;;;;;5054160;28;20368;-85
2022/06/30 07:11:58;;;;;;;4.45;1.00;;;13.90;71.10;;;;;;5054042;28;20783;-82
2022/06/30 07:14:25;;;;;;;1.60;0.90;;;13.90;71.80;;;;;;5053803;28;20487;-83
2022/06/30 07:16:52;;;;;;;2.03;0.90;;;13.70;73.20;;;;;;5053994;28;20710;-80
2022/06/30 07:19:19;;;;;;;2.53;1.00;;;13.70;74.10;;;;;;5054101;28;20372;-86
2022/06/30 07:21:46;;;;;;;1.98;0.93;;;13.60;74.60;;;;;;5054280;28;20407;-83
2022/06/30 07:24:13;;;;;;;3.20;1.30;;;13.50;75.70;;;;;;5054329;28;20376;-81
2022/06/30 07:26:40;;;;;;;3.57;1.93;;;13.50;76.90;;;;;;5054450;28;20853;-81
2022/06/30 07:29:08;;;;;;;3.72;2.00;;;13.40;78.30;;;;;;5053928;28;20391;-81
2022/06/30 07:31:35;;;;;;;4.53;2.35;;;13.30;78.60;;;;;;5052884;28;20482;-84
2022/06/30 07:34:02;;;;;;;4.20;2.30;;;13.20;79.30;;;;;;5052382;28;20939;-83
2022/06/30 07:36:30;;;;;;;5.13;2.40;;;13.20;79.60;;;;;;5052562;28;20388;-81
2022/06/30 07:38:57;;;;;;;6.60;2.50;;;13.10;80.80;;;;;;5053434;28;20384;-82
2022/06/30 07:41:24;;;;;;;5.30;2.67;;;13.00;82.00;;;;;;5053726;28;20867;-87
2022/06/30 07:43:52;;;;;;;9.57;3.47;;;13.00;82.90;;;;;;5053320;28;20883;-83
2022/06/30 07:46:19;;;;;;;9.43;4.05;;;12.90;83.70;;;;;;5053331;28;20379;-84
2022/06/30 07:48:51;;;;;;;9.85;3.90;;;12.90;85.50;;;;;;5059700;28;20736;-85
2022/06/30 07:51:20;;;;;;;8.80;3.50;;;12.90;85.20;;;;;;5052926;28;20384;-84
2022/06/30 07:53:48;;;;;;;9.73;4.25;;;12.80;84.10;;;;;;5053157;28;20406;-80
2022/06/30 07:56:16;;;;;;;6.13;3.40;;;12.80;85.80;;;;;;5053329;28;20368;-84
2022/06/30 07:58:44;;;;;;;9.10;4.63;;;12.80;86.50;;;;;;5053232;28;20391;-79
2022/06/30 08:01:11;;;;;;;8.70;4.85;;;12.80;88.10;;;;;;5053846;28;20451;-83
2022/06/30 08:03:39;;;;;;;8.88;4.78;;;12.70;89.70;;;;;;5055132;28;20376;-79
2022/06/30 08:06:06;;;;;;;7.18;3.83;;;12.70;90.40;;;;;;5054002;28;20376;-82
2022/06/30 08:08:33;;;;;;;5.80;3.20;;;12.70;90.60;;;;;;5051856;28;20387;-80
2022/06/30 08:11:00;;;;;;;7.93;3.40;;;12.70;90.50;;;;;;5052969;28;20408;-85
2022/06/30 08:13:27;;;;;;;3.95;2.70;;;12.70;90.40;;;;;;5051589;28;20736;-84
2022/06/30 08:15:55;;;;;;;3.93;2.90;;;12.70;90.50;;;;;;5052847;28;20402;-82
2022/06/30 08:18:22;;;;;;;4.40;2.90;;;12.70;90.70;;;;;;5052878;28;20376;-81
2022/06/30 08:20:50;;;;;;;7.65;2.97;;;12.70;91.20;;;;;;5052830;28;20713;-80
2022/06/30 08:23:17;;;;;;;5.65;2.80;;;12.70;91.40;;;;;;5052918;28;20372;-81
2022/06/30 08:25:44;;;;;;;5.10;2.72;;;12.70;91.60;;;;;;5052662;28;20521;-80
2022/06/30 08:28:12;;;;;;;6.32;2.80;;;12.60;92.00;;;;;;5052570;28;20376;-80
2022/06/30 08:30:39;;;;;;;6.30;3.05;;;12.70;92.50;;;;;;5052396;28;20400;-81
2022/06/30 08:33:06;;;;;;;4.70;2.80;;;12.60;92.80;;;;;;5052514;28;20403;-82
2022/06/30 08:35:33;;;;;;;5.20;3.03;;;12.60;93.50;;;;;;5052483;28;20471;-81
2022/06/30 08:38:00;;;;;;;5.97;3.60;;;12.50;94.20;;;;;;5053863;28;20823;-82
2022/06/30 08:43:15;;;;;;;5.47;3.10;;;12.50;94.60;;;;;;5052608;28;20414;-81
2022/06/30 08:45:44;;;;;;;7.13;3.55;;;12.50;95.30;;;;;;5052672;28;20739;-81
2022/06/30 08:48:11;;;;;;;8.55;4.10;;;12.40;96.00;;;;;;5052866;28;20360;-82
2022/06/30 08:50:42;;;;;;;6.55;3.30;;;12.30;96.60;;;;;;5053033;28;20388;-81
2022/06/30 08:53:10;;;;;;;6.38;3.42;;;12.30;96.90;;;;;;5052868;28;20372;-80
2022/06/30 08:55:38;;;;;;;6.95;3.67;;;12.30;97.10;;;;;;5052643;28;20418;-81
2022/06/30 08:58:08;;;;;;;13.85;4.60;;;12.30;97.90;;;;;;5052226;28;20378;-81
2022/06/30 09:00:37;;;;;;;12.48;6.82;;;12.20;98.60;;;;;;5052179;28;20382;-83
2022/06/30 09:03:08;;;;;;;7.45;4.50;;;12.20;98.80;;;;;;5052205;28;20429;-80
2022/06/30 09:05:36;;;;;;;11.25;5.97;;;12.20;98.90;;;;;;5050946;28;20384;-82
2022/06/30 09:08:03;;;;;;;8.75;5.07;;;12.20;99.10;;;;;;5052514;28;20380;-82
2022/06/30 09:10:30;;;;;;;7.35;3.92;;;12.20;99.10;;;;;;5053194;28;20842;-82
2022/06/30 09:13:00;;;;;;;8.13;4.90;;;12.20;99.30;;;;;;5052321;28;20364;-81
2022/06/30 09:15:32;;;;;;;9.10;4.20;;;12.20;99.60;;;;;;5052018;28;20524;-82
2022/06/30 09:18:00;;;;;;;9.10;4.45;;;12.10;99.90;;;;;;5052061;28;20402;-80
2022/06/30 09:20:54;;;;;;;6.93;3.67;;;12.00;99.90;;;;;;5052508;28;20392;-80
2022/06/30 09:23:28;;;;;;;6.85;3.40;;;12.00;99.90;;;;;;5053271;28;20864;-81
2022/06/30 09:25:58;;;;;;;12.95;4.00;;;12.00;99.90;;;;;;5055215;28;20380;-81
2022/06/30 09:28:47;;;;;;;11.48;4.93;;;12.00;99.90;;;;;;5053123;28;20408;-84
2022/06/30 09:31:30;;;;;;;17.60;10.10;;;12.00;99.90;;;;;;5050717;28;20537;-81
2022/06/30 09:34:10;;;;;;;23.73;13.02;;;12.10;99.90;;;;;;5052006;28;20396;-83
2022/06/30 09:36:38;;;;;;;19.25;10.45;;;12.20;99.60;;;;;;5051981;28;20871;-82
2022/06/30 09:39:11;;;;;;;17.67;9.10;;;12.30;99.50;;;;;;5051880;28;20394;-83
2022/06/30 09:41:41;;;;;;;11.95;6.97;;;12.30;99.20;;;;;;5051792;28;20368;-82
2022/06/30 09:44:22;;;;;;;11.80;5.45;;;12.30;99.20;;;;;;5052044;28;20386;-82
2022/06/30 09:47:12;;;;;;;15.25;6.55;;;12.30;98.60;;;;;;5056272;28;20448;-84
2022/06/30 09:49:46;;;;;;;19.58;9.52;;;12.40;98.30;;;;;;5055883;28;20455;-82
2022/06/30 09:52:22;;;;;;;23.58;10.82;;;12.40;98.50;;;;;;5051786;28;20400;-82
2022/06/30 09:55:08;;;;;;;24.95;10.43;;;12.40;98.40;;;;;;5052850;28;20450;-82
2022/06/30 09:57:42;;;;;;;29.63;9.90;;;12.30;98.50;;;;;;5055494;28;20372;-82
2022/06/30 10:00:17;;;;;;;25.92;8.88;;;12.30;98.50;;;;;;5055387;28;20383;-81
2022/06/30 10:02:52;;;;;;;24.67;7.90;;;12.20;98.90;;;;;;5055437;28;20364;-84
2022/06/30 10:05:20;;;;;;;23.98;8.00;;;12.10;99.10;;;;;;5055259;28;20379;-82
2022/06/30 10:07:47;;;;;;;17.63;6.95;;;12.00;99.60;;;;;;5055242;28;20436;-82
2022/06/30 10:10:17;;;;;;;18.77;7.10;;;12.00;99.90;;;;;;5055204;28;20375;-82
2022/06/30 10:12:45;;;;;;;18.00;5.97;;;11.90;99.90;;;;;;5055232;28;20368;-82
2022/06/30 10:15:16;;;;;;;19.50;6.77;;;11.90;99.90;;;;;;5055275;28;20493;-83
2022/06/30 10:17:55;;;;;;;20.73;7.32;;;11.80;99.90;;;;;;5054101;28;20375;-83
2022/06/30 10:20:23;;;;;;;15.82;5.90;;;11.80;99.90;;;;;;5055391;28;20375;-83
2022/06/30 10:22:50;;;;;;;20.15;5.90;;;11.80;99.90;;;;;;5055082;28;20727;-84
2022/06/30 10:25:18;;;;;;;18.65;5.72;;;11.70;99.90;;;;;;5054960;28;20375;-82
2022/06/30 10:27:47;;;;;;;9.10;4.57;;;11.70;99.90;;;;;;5055012;28;20914;-83
2022/06/30 10:30:17;;;;;;;8.13;3.55;;;11.80;99.90;;;;;;5054881;28;20387;-82
2022/06/30 10:32:47;;;;;;;8.23;3.20;;;11.80;99.90;;;;;;5055138;28;20909;-82
2022/06/30 10:35:29;;;;;;;10.38;3.40;;;11.80;99.90;;;;;;5054750;28;20399;-82
2022/06/30 10:38:17;;;;;;;12.90;4.15;;;11.90;99.90;;;;;;5054952;28;20370;-81
2022/06/30 10:40:59;;;;;;;12.25;4.55;;;11.90;99.90;;;;;;5054604;28;20372;-82
2022/06/30 10:43:27;;;;;;;12.38;4.85;;;11.90;99.90;;;;;;5054978;28;20372;-81
2022/06/30 10:45:55;;;;;;;21.38;5.07;;;11.90;99.90;;;;;;5054691;28;20368;-81
2022/06/30 10:48:24;;;;;;;11.23;5.10;;;11.90;99.90;;;;;;5054655;28;20391;-84
2022/06/30 10:50:52;;;;;;;11.40;4.80;;;11.90;99.90;;;;;;5057629;28;20428;-82
2022/06/30 10:53:37;;;;;;;9.25;4.30;;;11.80;99.90;;;;;;5054458;28;20380;-81
2022/06/30 10:56:06;;;;;;;9.10;3.65;;;11.80;99.90;;;;;;5054502;28;20376;-82
2022/06/30 10:58:33;;;;;;;11.65;3.55;;;11.80;99.90;;;;;;5054635;28;20382;-82
2022/06/30 11:01:03;;;;;;;9.15;3.40;;;11.80;99.90;;;;;;5054286;28;20376;-83
2022/06/30 11:03:32;;;;;;;7.13;2.80;;;11.70;99.90;;;;;;5054358;28;20459;-83
2022/06/30 11:06:07;;;;;;;8.23;3.00;;;11.70;99.90;;;;;;5053179;28;20421;-83
2022/06/30 11:08:46;;;;;;;9.30;3.03;;;11.70;99.90;;;;;;5055386;28;20694;-83
2022/06/30 11:11:34;;;;;;;7.72;3.10;;;11.70;99.90;;;;;;5054192;28;20372;-82
2022/06/30 11:14:02;;;;;;;9.23;3.42;;;11.70;99.90;;;;;;5032209;28;20405;-82
2022/06/30 11:16:31;;;;;;;10.75;3.10;;;11.70;99.90;;;;;;5032469;28;20370;-84
2022/06/30 11:18:59;;;;;;;12.15;2.83;;;11.70;99.90;;;;;;5032411;28;20385;-82
2022/06/30 11:21:31;;;;;;;11.55;3.30;;;11.70;99.90;;;;;;5032066;28;20375;-82
2022/06/30 11:24:02;;;;;;;14.38;3.28;;;11.70;99.90;;;;;;5032096;28;20388;-82
2022/06/30 11:29:18;;;;;;;13.13;3.65;;;11.60;99.90;;;;;;5032509;28;20420;-83
2022/06/30 11:31:46;;;;;;;15.10;4.05;;;11.60;99.90;;;;;;5031491;28;20648;-82
2022/06/30 11:34:16;;;;;;;10.50;3.63;;;11.60;99.90;;;;;;5031719;28;20405;-83
2022/06/30 11:36:45;;;;;;;10.77;2.90;;;11.60;99.90;;;;;;5031807;28;20711;-83
2022/06/30 11:39:15;;;;;;;10.77;3.30;;;11.60;99.90;;;;;;5031932;28;20485;-81
2022/06/30 11:41:56;;;;;;;9.95;3.10;;;11.60;99.90;;;;;;5031701;28;20382;-82
2022/06/30 11:44:34;;;;;;;8.77;3.13;;;11.60;99.90;;;;;;5031713;28;20726;-82
2022/06/30 11:47:12;;;;;;;8.07;3.40;;;11.60;99.90;;;;;;5031591;28;20382;-83
2022/06/30 11:49:45;;;;;;;9.23;3.40;;;11.60;99.90;;;;;;5031933;28;20377;-83
2022/06/30 11:52:18;;;;;;;8.95;3.28;;;11.60;99.90;;;;;;5052881;28;20920;-82
2022/06/30 11:54:50;;;;;;;7.82;3.22;;;11.60;99.90;;;;;;5053361;28;20407;-82
2022/06/30 11:57:18;;;;;;;10.95;3.42;;;11.60;99.90;;;;;;5053308;28;20439;-83
2022/06/30 11:59:52;;;;;;;7.53;2.83;;;11.60;99.90;;;;;;5053522;28;20384;-82
2022/06/30 12:02:20;;;;;;;8.20;3.05;;;11.60;99.90;;;;;;5053242;28;20415;-83
2022/06/30 12:04:55;;;;;;;5.70;3.03;;;11.50;99.90;;;;;;5053094;28;20376;-83
2022/06/30 12:07:23;;;;;;;4.70;2.70;;;11.50;99.90;;;;;;5053716;28;20709;-83
2022/06/30 12:09:52;;;;;;;6.53;2.90;;;11.50;99.90;;;;;;5053559;28;20890;-83
2022/06/30 12:12:27;;;;;;;8.13;2.80;;;11.40;99.90;;;;;;5052904;28;20376;-83
2022/06/30 12:14:59;;;;;;;4.17;2.70;;;11.50;99.90;;;;;;5052722;28;20400;-83
2022/06/30 12:17:34;;;;;;;6.50;2.72;;;11.50;99.90;;;;;;5052607;28;20371;-83
2022/06/30 12:20:03;;;;;;;4.28;2.58;;;11.40;99.90;;;;;;5053230;28;20383;-83
2022/06/30 12:22:32;;;;;;;5.43;2.60;;;11.40;99.90;;;;;;5052854;28;20459;-82
2022/06/30 12:25:00;;;;;;;4.03;2.50;;;11.40;99.90;;;;;;5052752;28;20405;-83
2022/06/30 12:27:43;;;;;;;5.23;2.60;;;11.40;99.90;;;;;;5052660;28;20434;-83
2022/06/30 12:30:14;;;;;;;6.43;2.55;;;11.40;99.90;;;;;;5052795;28;20391;-82
2022/06/30 12:32:41;;;;;;;5.20;2.58;;;11.40;99.90;;;;;;5052957;28;20882;-82
2022/06/30 12:35:11;;;;;;;4.43;2.70;;;11.40;99.90;;;;;;5052479;28;20410;-82
2022/06/30 12:37:41;;;;;;;8.13;2.60;;;11.40;99.90;;;;;;5052632;28;20878;-82
2022/06/30 12:40:12;;;;;;;7.20;4.90;;;11.40;99.90;;;;;;5053570;28;20391;-82
2022/06/30 12:42:51;;;;;;;5.70;3.70;;;11.30;99.90;;;;;;5052661;28;20367;-82
2022/06/30 12:45:43;;;;;;;5.90;3.30;;;11.40;99.90;;;;;;5052427;28;20380;-82
2022/06/30 12:48:11;;;;;;;5.68;3.85;;;11.30;99.90;;;;;;5052299;28;20889;-82
2022/06/30 12:50:41;;;;;;;6.18;3.72;;;11.30;99.90;;;;;;5052380;28;20384;-82
2022/06/30 12:53:26;;;;;;;6.10;3.72;;;11.30;99.90;;;;;;5052925;28;20724;-81
2022/06/30 12:56:01;;;;;;;7.18;4.32;;;11.30;99.90;;;;;;5052447;28;20380;-82
2022/06/30 12:58:49;;;;;;;7.18;4.30;;;11.20;99.90;;;;;;5052116;28;20367;-81
2022/06/30 13:01:38;;;;;;;8.23;4.53;;;11.30;99.90;;;;;;5050822;28;20380;-82
2022/06/30 13:04:07;;;;;;;7.22;5.07;;;11.30;99.90;;;;;;5052205;28;20859;-83
2022/06/30 13:06:42;;;;;;;7.45;5.55;;;11.30;99.90;;;;;;5052189;28;20375;-82
2022/06/30 13:09:14;;;;;;;9.80;5.95;;;11.30;99.90;;;;;;5052438;28;20376;-83
2022/06/30 13:11:46;;;;;;;13.20;6.00;;;11.30;99.90;;;;;;5052636;28;20375;-82
2022/06/30 13:14:15;;;;;;;10.53;5.87;;;11.30;99.90;;;;;;5051894;28;20692;-83